createdAt,value
2017-11-30T00:01:29.993Z,99705.95
2017-11-30T00:03:56.432Z,99717.55
2017-11-30T00:06:22.850Z,99702.75
2017-11-30T00:08:49.268Z,99692.16
2017-11-30T00:11:15.707Z,99687.77
2017-11-30T00:13:42.151Z,99696.59
2017-11-30T00:16:08.821Z,99705.74
2017-11-30T00:18:35.460Z,99699.45
2017-11-30T00:21:01.964Z,99701.38
2017-11-30T00:23:28.391Z,99692.16
2017-11-30T00:25:54.836Z,99698.80
2017-11-30T00:28:21.250Z,99695.13
2017-11-30T00:30:47.635Z,99703.60
2017-11-30T00:33:14.078Z,99698.56
2017-11-30T00:35:40.700Z,99682.06
2017-11-30T00:38:07.216Z,99676.45
2017-11-30T00:40:33.772Z,99661.02
2017-11-30T00:43:00.400Z,99667.03
2017-11-30T00:45:27.046Z,99660.60
2017-11-30T00:47:53.265Z,99663.72
2017-11-30T00:50:19.914Z,99664.35
2017-11-30T00:52:46.342Z,99668.48
2017-11-30T00:55:12.957Z,99662.00
2017-11-30T00:57:39.377Z,99653.18
2017-11-30T01:00:06.043Z,99626.14
2017-11-30T01:02:32.458Z,99618.56
2017-11-30T01:04:58.874Z,99612.14
2017-11-30T01:07:25.317Z,99604.78
2017-11-30T01:09:51.761Z,99607.91
2017-11-30T01:12:18.020Z,99610.31
2017-11-30T01:14:44.437Z,99611.13
2017-11-30T01:17:10.685Z,99617.63
2017-11-30T01:19:37.121Z,99612.52
2017-11-30T01:22:03.550Z,99606.35
2017-11-30T01:24:30.152Z,99589.48
2017-11-30T01:26:56.575Z,99589.32
2017-11-30T01:29:23.240Z,99599.25
2017-11-30T01:31:49.659Z,99594.41
2017-11-30T01:34:16.074Z,99594.74
2017-11-30T01:36:42.515Z,99589.98
2017-11-30T01:39:08.796Z,99587.81
2017-11-30T01:41:35.217Z,99579.97
2017-11-30T01:44:01.844Z,99575.02
2017-11-30T01:46:28.092Z,99571.12
2017-11-30T01:48:54.800Z,99562.97
2017-11-30T01:51:21.217Z,99557.31
2017-11-30T01:53:47.666Z,99539.54
2017-11-30T01:56:14.068Z,99528.63
2017-11-30T01:58:40.466Z,99531.80
2017-11-30T02:01:07.100Z,99534.28
2017-11-30T02:03:33.721Z,99528.03
2017-11-30T02:05:59.985Z,99521.37
2017-11-30T02:08:26.399Z,99525.80
2017-11-30T02:10:52.798Z,99519.09
2017-11-30T02:13:19.067Z,99500.16
2017-11-30T02:15:45.557Z,99516.31
2017-11-30T02:18:11.998Z,99520.50
2017-11-30T02:20:38.417Z,99515.27
2017-11-30T02:23:04.856Z,99510.12
2017-11-30T02:25:31.299Z,99517.70
2017-11-30T02:27:57.665Z,99513.83
2017-11-30T02:30:24.282Z,99505.48
2017-11-30T02:32:50.697Z,99496.22
2017-11-30T02:35:17.340Z,99486.84
2017-11-30T02:37:43.784Z,99479.72
2017-11-30T02:40:10.232Z,99467.00
2017-11-30T02:42:36.519Z,99469.92
2017-11-30T02:45:02.989Z,99473.98
2017-11-30T02:47:29.499Z,99472.17
2017-11-30T02:49:56.163Z,99465.34
2017-11-30T02:52:22.588Z,99471.84
2017-11-30T02:54:48.997Z,99469.38
2017-11-30T02:57:15.671Z,99463.70
2017-11-30T02:59:42.051Z,99460.94
2017-11-30T03:02:08.498Z,99458.11
2017-11-30T03:04:34.940Z,99455.44
2017-11-30T03:07:01.212Z,99441.50
2017-11-30T03:09:27.821Z,99444.41
2017-11-30T03:11:54.218Z,99439.80
2017-11-30T03:14:20.686Z,99430.30
2017-11-30T03:16:47.099Z,99436.19
2017-11-30T03:19:13.541Z,99443.50
2017-11-30T03:21:40.224Z,99447.30
2017-11-30T03:24:06.862Z,99444.04
2017-11-30T03:26:33.462Z,99445.23
2017-11-30T03:29:00.136Z,99445.89
2017-11-30T03:31:26.772Z,99449.31
2017-11-30T03:33:53.208Z,99442.54
2017-11-30T03:36:19.649Z,99447.92
2017-11-30T03:38:46.279Z,99446.40
2017-11-30T03:41:12.890Z,99456.08
2017-11-30T03:43:39.331Z,99450.79
2017-11-30T03:46:05.580Z,99451.19
2017-11-30T03:48:32.064Z,99447.94
2017-11-30T03:50:58.655Z,99430.75
2017-11-30T03:53:25.147Z,99432.62
2017-11-30T03:55:51.682Z,99424.54
2017-11-30T03:58:18.104Z,99431.44
2017-11-30T04:00:44.448Z,99429.02
2017-11-30T04:03:10.857Z,99414.34
2017-11-30T04:05:37.309Z,99410.98
2017-11-30T04:08:03.745Z,99409.88
2017-11-30T04:10:30.190Z,99408.63
2017-11-30T04:12:56.631Z,99415.28
2017-11-30T04:15:23.148Z,99390.94
2017-11-30T04:17:49.588Z,99373.54
2017-11-30T04:20:16.036Z,99382.81
2017-11-30T04:22:42.471Z,99386.93
2017-11-30T04:25:09.130Z,99375.69
2017-11-30T04:27:35.753Z,99388.73
2017-11-30T04:30:02.143Z,99392.14
2017-11-30T04:32:28.587Z,99376.56
2017-11-30T04:34:55.073Z,99378.96
2017-11-30T04:37:21.711Z,99365.17
2017-11-30T04:39:48.014Z,99374.63
2017-11-30T04:42:14.431Z,99363.94
2017-11-30T04:44:40.871Z,99352.63
2017-11-30T04:47:07.389Z,99358.86
2017-11-30T04:49:33.830Z,99346.88
2017-11-30T04:52:00.245Z,99350.11
2017-11-30T04:54:26.712Z,99345.03
2017-11-30T04:56:53.131Z,99341.98
2017-11-30T04:59:19.571Z,99327.52
2017-11-30T05:01:46.245Z,99323.69
2017-11-30T05:04:13.053Z,99305.10
2017-11-30T05:06:39.498Z,99300.55
2017-11-30T05:09:06.163Z,99298.42
2017-11-30T05:11:32.801Z,99307.41
2017-11-30T05:13:59.148Z,99321.71
2017-11-30T05:16:25.614Z,99302.44
2017-11-30T05:18:52.056Z,99301.80
2017-11-30T05:21:18.398Z,99306.33
2017-11-30T05:23:44.837Z,99308.80
2017-11-30T05:26:11.402Z,99307.59
2017-11-30T05:28:38.021Z,99326.80
2017-11-30T05:31:04.678Z,99319.06
2017-11-30T05:33:31.316Z,99306.30
2017-11-30T05:35:58.161Z,99302.33
2017-11-30T05:38:24.804Z,99298.86
2017-11-30T05:40:51.281Z,99308.27
2017-11-30T05:43:17.661Z,99297.23
2017-11-30T05:45:44.291Z,99299.89
2017-11-30T05:48:10.940Z,99302.80
2017-11-30T05:50:37.576Z,99302.17
2017-11-30T05:53:04.066Z,99305.41
2017-11-30T05:55:30.650Z,99286.59
2017-11-30T05:57:57.092Z,99296.41
2017-11-30T06:00:23.564Z,99286.59
2017-11-30T06:02:50.015Z,99286.24
2017-11-30T06:05:16.453Z,99289.00
2017-11-30T06:07:42.965Z,99304.02
2017-11-30T06:10:09.314Z,99302.95
2017-11-30T06:12:35.750Z,99296.38
2017-11-30T06:15:02.166Z,99286.79
2017-11-30T06:17:28.714Z,99296.92
2017-11-30T06:19:55.151Z,99283.55
2017-11-30T06:22:21.816Z,99267.63
2017-11-30T06:24:48.463Z,99258.45
2017-11-30T06:27:15.079Z,99254.72
2017-11-30T06:29:41.740Z,99249.70
2017-11-30T06:32:08.175Z,99248.13
2017-11-30T06:34:34.675Z,99236.11
2017-11-30T06:37:01.116Z,99233.11
2017-11-30T06:39:27.482Z,99227.52
2017-11-30T06:41:54.114Z,99224.30
2017-11-30T06:44:20.421Z,99236.30
2017-11-30T06:46:46.834Z,99238.64
2017-11-30T06:49:13.276Z,99238.70
2017-11-30T06:51:39.793Z,99239.91
2017-11-30T06:54:06.231Z,99259.49
2017-11-30T06:56:32.714Z,99259.61
2017-11-30T06:58:59.353Z,99260.66
2017-11-30T07:01:25.989Z,99296.92
2017-11-30T07:03:52.601Z,99246.77
2017-11-30T07:06:19.266Z,99266.53
2017-11-30T07:08:45.712Z,99244.16
2017-11-30T07:11:12.072Z,99254.90
2017-11-30T07:13:38.519Z,99235.92
2017-11-30T07:16:04.957Z,99245.50
2017-11-30T07:18:31.404Z,99256.93
2017-11-30T07:20:57.845Z,99228.80
2017-11-30T07:23:24.287Z,99243.39
2017-11-30T07:25:50.802Z,99222.34
2017-11-30T07:28:17.283Z,99206.52
2017-11-30T07:30:43.723Z,99229.86
2017-11-30T07:33:10.212Z,99228.11
2017-11-30T07:35:36.747Z,99225.59
2017-11-30T07:38:03.024Z,99224.98
2017-11-30T07:40:29.621Z,99240.35
2017-11-30T07:42:56.294Z,99239.01
2017-11-30T07:45:22.908Z,99223.27
2017-11-30T07:47:49.330Z,99221.69
2017-11-30T07:50:16.004Z,99250.67
2017-11-30T07:52:42.538Z,99224.66
2017-11-30T07:55:08.930Z,99234.56
2017-11-30T07:57:35.371Z,99222.03
2017-11-30T08:00:01.813Z,99221.17
2017-11-30T08:02:28.231Z,99260.45
2017-11-30T08:04:54.673Z,99246.69
2017-11-30T08:07:21.201Z,99237.83
2017-11-30T08:09:47.629Z,99228.30
2017-11-30T08:12:14.067Z,99222.53
2017-11-30T08:14:40.491Z,99237.72
2017-11-30T08:17:06.933Z,99243.39
2017-11-30T08:19:33.615Z,99228.03
2017-11-30T08:22:00.236Z,99241.88
2017-11-30T08:24:26.680Z,99227.62
2017-11-30T08:26:53.326Z,99212.33
2017-11-30T08:29:19.963Z,99216.36
2017-11-30T08:31:46.459Z,99223.77
2017-11-30T08:34:13.037Z,99229.38
2017-11-30T08:36:39.263Z,99222.48
2017-11-30T08:39:05.908Z,99216.09
2017-11-30T08:41:32.400Z,99232.28
2017-11-30T08:43:58.840Z,99231.97
2017-11-30T08:46:25.258Z,99195.30
2017-11-30T08:48:51.799Z,99202.81
2017-11-30T08:51:18.218Z,99213.53
2017-11-30T08:53:44.560Z,99197.54
2017-11-30T08:56:11.001Z,99200.09
2017-11-30T08:58:37.577Z,99201.73
2017-11-30T09:01:04.183Z,99206.58
2017-11-30T09:03:30.845Z,99186.73
2017-11-30T09:05:57.491Z,99188.35
2017-11-30T09:08:23.713Z,99183.18
2017-11-30T09:10:50.355Z,99170.18
2017-11-30T09:13:16.842Z,99165.80
2017-11-30T09:15:43.286Z,99158.86
2017-11-30T09:18:09.828Z,99145.18
2017-11-30T09:20:36.243Z,99154.84
2017-11-30T09:23:02.687Z,99150.01
2017-11-30T09:25:29.190Z,99153.41
2017-11-30T09:27:55.644Z,99152.47
2017-11-30T09:30:22.089Z,99168.64
2017-11-30T09:32:48.629Z,99148.36
2017-11-30T09:35:15.071Z,99138.12
2017-11-30T09:37:41.489Z,99135.42
2017-11-30T09:40:07.968Z,99136.25
2017-11-30T09:42:34.618Z,99128.70
2017-11-30T09:45:01.142Z,99133.15
2017-11-30T09:47:27.752Z,99119.95
2017-11-30T09:49:54.007Z,99083.75
2017-11-30T09:52:20.519Z,99097.31
2017-11-30T09:54:46.874Z,99154.68
2017-11-30T09:57:13.494Z,99078.41
2017-11-30T09:59:39.889Z,99064.83
2017-11-30T10:02:06.133Z,99084.13
2017-11-30T10:04:32.428Z,99067.27
2017-11-30T10:06:58.837Z,99069.41
2017-11-30T10:09:25.453Z,99064.19
2017-11-30T10:11:51.870Z,99083.55
2017-11-30T10:14:18.290Z,99060.59
2017-11-30T10:16:44.981Z,99039.38
2017-11-30T10:19:11.474Z,99058.50
2017-11-30T10:21:37.915Z,99065.45
2017-11-30T10:24:04.458Z,99066.36
2017-11-30T10:26:30.897Z,99075.31
2017-11-30T10:28:57.356Z,99038.77
2017-11-30T10:31:23.957Z,99039.28
2017-11-30T10:33:50.375Z,99045.52
2017-11-30T10:36:16.818Z,99036.52
2017-11-30T10:38:43.500Z,99024.55
2017-11-30T10:41:10.124Z,99006.84
2017-11-30T10:43:36.773Z,99024.47
2017-11-30T10:46:03.261Z,99023.17
2017-11-30T10:48:29.698Z,99004.69
2017-11-30T10:50:55.927Z,99005.31
2017-11-30T10:53:22.193Z,99026.34
2017-11-30T10:55:48.443Z,99008.31
2017-11-30T10:58:14.771Z,99022.37
2017-11-30T11:00:41.404Z,99009.52
2017-11-30T11:03:08.024Z,99002.82
2017-11-30T11:05:34.995Z,98997.87
2017-11-30T11:08:01.338Z,99004.33
2017-11-30T11:10:27.569Z,99005.92
2017-11-30T11:12:53.793Z,98986.31
2017-11-30T11:15:20.076Z,98989.81
2017-11-30T11:17:46.297Z,98995.80
2017-11-30T11:20:12.644Z,98994.59
2017-11-30T11:22:38.924Z,98999.81
2017-11-30T11:25:05.153Z,98980.44
2017-11-30T11:27:31.379Z,98982.69
2017-11-30T11:29:57.644Z,98977.63
2017-11-30T11:32:23.872Z,98943.32
2017-11-30T11:34:50.099Z,98957.16
2017-11-30T11:37:16.366Z,98968.29
2017-11-30T11:39:42.695Z,98945.55
2017-11-30T11:42:09.520Z,98952.80
2017-11-30T11:44:36.179Z,98941.61
2017-11-30T11:47:02.712Z,98946.09
2017-11-30T11:49:29.125Z,98957.48
2017-11-30T11:51:55.640Z,98964.26
2017-11-30T11:54:22.113Z,98970.16
2017-11-30T11:56:48.755Z,98945.52
2017-11-30T11:59:15.402Z,98951.02
2017-11-30T12:01:41.908Z,98944.34
2017-11-30T12:04:08.324Z,98940.59
2017-11-30T12:06:34.768Z,98948.55
2017-11-30T12:09:01.283Z,98958.73
2017-11-30T12:11:27.564Z,98977.51
2017-11-30T12:13:54.192Z,98972.19
2017-11-30T12:16:20.805Z,98983.52
2017-11-30T12:18:47.226Z,98968.77
2017-11-30T12:21:13.907Z,98968.90
2017-11-30T12:23:40.552Z,98977.27
2017-11-30T12:26:07.052Z,98982.41
2017-11-30T12:28:33.469Z,98991.97
2017-11-30T12:30:59.849Z,98986.44
2017-11-30T12:33:26.486Z,98995.61
2017-11-30T12:35:53.120Z,98938.27
2017-11-30T12:38:19.558Z,98995.20
2017-11-30T12:40:46.277Z,98991.30
2017-11-30T12:43:12.642Z,98974.80
2017-11-30T12:45:39.062Z,98961.31
2017-11-30T12:48:05.509Z,98951.31
2017-11-30T12:50:31.938Z,98980.81
2017-11-30T12:52:58.188Z,98998.95
2017-11-30T12:55:24.655Z,98979.73
2017-11-30T12:57:51.229Z,98971.95
2017-11-30T13:00:17.736Z,98999.16
2017-11-30T13:02:44.096Z,98987.05
2017-11-30T13:05:10.533Z,98984.08
2017-11-30T13:07:37.144Z,98996.77
2017-11-30T13:10:03.555Z,98993.16
2017-11-30T13:12:30.217Z,99015.23
2017-11-30T13:14:56.635Z,99001.78
2017-11-30T13:17:23.077Z,98982.66
2017-11-30T13:19:49.495Z,98981.84
2017-11-30T13:22:15.913Z,98975.28
2017-11-30T13:24:42.354Z,99000.48
2017-11-30T13:27:08.661Z,98982.42
2017-11-30T13:29:35.269Z,98986.19
2017-11-30T13:32:01.906Z,98975.13
2017-11-30T13:34:28.292Z,98976.33
2017-11-30T13:36:54.738Z,98976.59
2017-11-30T13:39:21.180Z,98972.56
2017-11-30T13:41:47.604Z,98981.88
2017-11-30T13:44:14.140Z,98994.95
2017-11-30T13:46:40.579Z,98993.08
2017-11-30T13:49:06.959Z,98986.86
2017-11-30T13:51:33.564Z,98974.28
2017-11-30T13:54:00.019Z,98966.32
2017-11-30T13:56:26.503Z,98977.80
2017-11-30T13:58:53.087Z,98933.92
2017-11-30T14:01:19.383Z,98969.58
2017-11-30T14:03:45.962Z,98953.65
2017-11-30T14:06:12.560Z,98972.81
2017-11-30T14:08:38.984Z,98966.63
2017-11-30T14:11:05.325Z,98961.36
2017-11-30T14:13:31.893Z,98977.00
2017-11-30T14:15:58.508Z,98962.45
2017-11-30T14:18:25.172Z,98961.80
2017-11-30T14:20:51.809Z,98957.47
2017-11-30T14:23:18.428Z,98959.78
2017-11-30T14:25:45.084Z,98971.28
2017-11-30T14:28:11.373Z,98963.56
2017-11-30T14:30:37.815Z,98967.09
2017-11-30T14:33:04.227Z,98913.94
2017-11-30T14:35:30.667Z,98939.46
2017-11-30T14:37:57.217Z,98956.63
2017-11-30T14:40:23.656Z,98946.46
2017-11-30T14:42:50.069Z,98948.78
2017-11-30T14:45:16.514Z,98954.48
2017-11-30T14:47:42.977Z,98965.39
2017-11-30T14:50:09.372Z,98989.05
2017-11-30T14:52:35.714Z,98956.44
2017-11-30T14:55:02.229Z,98958.47
2017-11-30T14:57:28.672Z,98937.92
2017-11-30T14:59:55.114Z,98960.09
2017-11-30T15:02:21.780Z,98974.16
2017-11-30T15:04:48.171Z,98968.06
2017-11-30T15:07:14.613Z,98975.35
2017-11-30T15:09:41.277Z,98968.75
2017-11-30T15:12:07.673Z,98972.78
2017-11-30T15:14:34.340Z,98967.92
2017-11-30T15:17:01.067Z,98981.55
2017-11-30T15:19:27.435Z,98962.11
2017-11-30T15:21:53.967Z,98989.09
2017-11-30T15:24:20.457Z,98970.13
2017-11-30T15:26:46.799Z,98978.81
2017-11-30T15:29:13.244Z,98991.54
2017-11-30T15:31:39.678Z,98976.11
2017-11-30T15:34:06.105Z,98996.23
2017-11-30T15:36:32.517Z,98975.34
2017-11-30T15:38:59.056Z,98976.05
2017-11-30T15:41:25.506Z,98997.14
2017-11-30T15:43:51.772Z,99004.33
2017-11-30T15:46:18.382Z,98995.50
2017-11-30T15:48:44.818Z,98982.64
2017-11-30T15:51:11.242Z,99008.04
2017-11-30T15:53:37.915Z,98990.72
2017-11-30T15:56:04.362Z,98991.05
2017-11-30T15:58:30.847Z,98982.50
2017-11-30T16:00:57.385Z,98952.72
2017-11-30T16:03:24.044Z,98997.25
2017-11-30T16:05:50.248Z,98981.41
2017-11-30T16:08:16.723Z,99003.88
2017-11-30T16:10:43.201Z,98996.92
2017-11-30T16:13:09.774Z,98993.31
2017-11-30T16:15:36.427Z,99009.67
2017-11-30T16:18:02.800Z,99012.91
2017-11-30T16:20:29.170Z,99006.28
2017-11-30T16:22:55.402Z,99013.44
2017-11-30T16:25:21.955Z,98996.95
2017-11-30T16:27:48.573Z,98983.59
2017-11-30T16:30:15.241Z,98978.02
2017-11-30T16:32:41.731Z,98994.24
2017-11-30T16:35:08.172Z,98985.66
2017-11-30T16:37:34.590Z,98984.98
2017-11-30T16:40:01.152Z,98987.31
2017-11-30T16:42:27.589Z,98986.12
2017-11-30T16:44:54.245Z,98989.33
2017-11-30T16:47:20.756Z,98977.99
2017-11-30T16:49:47.174Z,98978.23
2017-11-30T16:52:13.716Z,98974.93
2017-11-30T16:54:40.131Z,98960.69
2017-11-30T16:57:06.418Z,98972.41
2017-11-30T16:59:33.039Z,98981.77
2017-11-30T17:01:59.488Z,98991.34
2017-11-30T17:04:25.696Z,98979.39
2017-11-30T17:06:52.340Z,98993.48
2017-11-30T17:09:18.818Z,98981.30
2017-11-30T17:11:45.423Z,98979.39
2017-11-30T17:14:12.063Z,98970.75
2017-11-30T17:16:38.603Z,98983.24
2017-11-30T17:19:05.095Z,98981.89
2017-11-30T17:21:31.514Z,98965.14
2017-11-30T17:23:57.706Z,98959.72
2017-11-30T17:26:24.299Z,98958.01
2017-11-30T17:28:50.803Z,98951.84
2017-11-30T17:31:17.384Z,98982.34
2017-11-30T17:33:44.045Z,98975.17
2017-11-30T17:36:10.464Z,98964.06
2017-11-30T17:38:36.674Z,98962.57
2017-11-30T17:41:02.929Z,98956.05
2017-11-30T17:43:29.365Z,98980.41
2017-11-30T17:45:55.786Z,98952.95
2017-11-30T17:48:22.204Z,98955.06
2017-11-30T17:50:48.619Z,98956.25
2017-11-30T17:53:15.060Z,98931.73
2017-11-30T17:55:41.476Z,98965.28
2017-11-30T17:58:07.923Z,98965.42
2017-11-30T18:00:34.364Z,98940.23
2017-11-30T18:03:00.781Z,98949.92
2017-11-30T18:05:27.221Z,98953.81
2017-11-30T18:07:53.668Z,98929.53
2017-11-30T18:10:20.081Z,98929.25
2017-11-30T18:12:46.364Z,98971.08
2017-11-30T18:15:12.865Z,98930.98
2017-11-30T18:17:39.281Z,98958.51
2017-11-30T18:20:05.727Z,98961.66
2017-11-30T18:22:32.164Z,98965.40
2017-11-30T18:24:58.527Z,98955.63
2017-11-30T18:27:25.151Z,98958.48
2017-11-30T18:29:51.398Z,98948.19
2017-11-30T18:32:17.833Z,98956.87
2017-11-30T18:34:44.266Z,98958.80
2017-11-30T18:37:10.894Z,98963.64
2017-11-30T18:39:37.309Z,98969.49
2017-11-30T18:42:03.974Z,98970.53
2017-11-30T18:44:30.370Z,98968.80
2017-11-30T18:46:56.638Z,98972.87
2017-11-30T18:49:23.097Z,98984.63
2017-11-30T18:51:49.492Z,98982.50
2017-11-30T18:54:15.988Z,98957.30
2017-11-30T18:56:42.367Z,98949.83
2017-11-30T18:59:08.993Z,98959.61
2017-11-30T19:01:35.229Z,98969.09
2017-11-30T19:04:01.668Z,98960.98
2017-11-30T19:06:27.893Z,98959.75
2017-11-30T19:08:54.366Z,98972.34
2017-11-30T19:11:20.830Z,98985.61
2017-11-30T19:13:47.400Z,98965.26
2017-11-30T19:16:13.838Z,98973.13
2017-11-30T19:18:40.408Z,98958.85
2017-11-30T19:21:06.911Z,98962.70
2017-11-30T19:23:33.517Z,98965.42
2017-11-30T19:25:59.756Z,98963.69
2017-11-30T19:28:26.080Z,98951.20
2017-11-30T19:30:52.643Z,98980.88
2017-11-30T19:33:19.259Z,98965.89
2017-11-30T19:35:45.672Z,98963.14
2017-11-30T19:38:12.100Z,98964.50
2017-11-30T19:40:38.786Z,98980.47
2017-11-30T19:43:05.236Z,98966.19
2017-11-30T19:45:31.655Z,98979.81
2017-11-30T19:47:58.261Z,98989.96
2017-11-30T19:50:24.700Z,98983.55
2017-11-30T19:52:51.138Z,98983.33
2017-11-30T19:55:17.796Z,98976.81
2017-11-30T19:57:44.035Z,98981.66
2017-11-30T20:00:10.645Z,98992.44
2017-11-30T20:02:37.301Z,98980.30
2017-11-30T20:05:03.940Z,98987.22
2017-11-30T20:07:30.376Z,98976.86
2017-11-30T20:09:56.983Z,98962.64
2017-11-30T20:12:23.290Z,98941.09
2017-11-30T20:14:49.641Z,98967.00
2017-11-30T20:17:16.309Z,98963.63
2017-11-30T20:19:42.539Z,98979.57
2017-11-30T20:22:08.976Z,98972.39
2017-11-30T20:24:35.590Z,98981.66
2017-11-30T20:27:01.839Z,98987.33
2017-11-30T20:29:28.094Z,98988.66
2017-11-30T20:31:54.564Z,98998.11
2017-11-30T20:34:21.086Z,98985.39
2017-11-30T20:36:47.424Z,98990.67
2017-11-30T20:39:13.867Z,98996.87
2017-11-30T20:41:40.440Z,99017.09
2017-11-30T20:44:06.667Z,98995.29
2017-11-30T20:46:33.103Z,98986.98
2017-11-30T20:48:59.366Z,98990.09
2017-11-30T20:51:25.791Z,98999.17
2017-11-30T20:53:52.397Z,98994.64
2017-11-30T20:56:18.833Z,98983.12
2017-11-30T20:58:45.125Z,98985.98
2017-11-30T21:01:11.547Z,98993.72
2017-11-30T21:03:38.139Z,98988.41
2017-11-30T21:06:04.566Z,98990.09
2017-11-30T21:08:31.191Z,98978.70
2017-11-30T21:10:57.589Z,98967.73
2017-11-30T21:13:23.930Z,98969.38
2017-11-30T21:15:50.346Z,98962.48
2017-11-30T21:18:16.789Z,98983.78
2017-11-30T21:20:43.159Z,98974.52
2017-11-30T21:23:09.594Z,98971.55
2017-11-30T21:25:35.984Z,98982.09
2017-11-30T21:28:02.468Z,98962.30
2017-11-30T21:30:29.076Z,98977.55
2017-11-30T21:32:55.486Z,98978.61
2017-11-30T21:35:21.701Z,99006.59
2017-11-30T21:37:47.993Z,98985.54
2017-11-30T21:40:14.431Z,98997.71
2017-11-30T21:42:40.669Z,99008.78
2017-11-30T21:45:07.150Z,99013.73
2017-11-30T21:47:33.520Z,98991.01
2017-11-30T21:49:59.961Z,99006.22
2017-11-30T21:52:26.605Z,99001.16
2017-11-30T21:54:53.217Z,99010.73
2017-11-30T21:57:19.636Z,99004.28
2017-11-30T21:59:46.152Z,99000.39
2017-11-30T22:02:12.595Z,99001.49
2017-11-30T22:04:38.973Z,99001.09
2017-11-30T22:07:05.447Z,98988.11
2017-11-30T22:09:32.052Z,98985.63
2017-11-30T22:11:58.539Z,98978.66
2017-11-30T22:14:24.914Z,98966.81
2017-11-30T22:16:51.516Z,98970.16
2017-11-30T22:19:17.963Z,98974.45
2017-11-30T22:21:44.622Z,98971.04
2017-11-30T22:24:11.246Z,98987.05
2017-11-30T22:26:37.899Z,98974.56
2017-11-30T22:29:04.171Z,98984.41
2017-11-30T22:31:30.564Z,98968.91
2017-11-30T22:33:56.991Z,98984.27
2017-11-30T22:36:23.604Z,98999.14
2017-11-30T22:38:50.048Z,98993.28
2017-11-30T22:41:16.704Z,98983.27
2017-11-30T22:43:43.335Z,98978.11
2017-11-30T22:46:09.775Z,98999.52
2017-11-30T22:48:36.206Z,98998.42
2017-11-30T22:51:02.832Z,99001.05
2017-11-30T22:53:29.489Z,99005.48
2017-11-30T22:55:56.125Z,98992.88
2017-11-30T22:58:22.612Z,98993.91
2017-11-30T23:00:49.048Z,98995.81
2017-11-30T23:03:15.400Z,98976.90
2017-11-30T23:05:41.708Z,98976.06
2017-11-30T23:08:08.079Z,98979.72
2017-11-30T23:10:34.546Z,98986.09
2017-11-30T23:13:00.798Z,98971.84
2017-11-30T23:15:27.162Z,99057.25
2017-11-30T23:17:53.364Z,98972.60
2017-11-30T23:20:19.789Z,98964.20
2017-11-30T23:22:46.225Z,98940.79
2017-11-30T23:25:12.496Z,98955.56
2017-11-30T23:27:38.786Z,98970.05
2017-11-30T23:30:05.224Z,98985.03
2017-11-30T23:32:31.799Z,98977.63
2017-11-30T23:34:58.185Z,98970.00
2017-11-30T23:37:24.368Z,98981.58
2017-11-30T23:39:50.548Z,98960.86
2017-11-30T23:42:16.901Z,98970.25
2017-11-30T23:44:43.116Z,98945.69
2017-11-30T23:47:09.563Z,98956.39
2017-11-30T23:49:35.895Z,98960.69
2017-11-30T23:52:02.279Z,98948.00
2017-11-30T23:54:28.466Z,98944.05
2017-11-30T23:56:54.687Z,98949.63
2017-11-30T23:59:20.864Z,98937.16
